createdAt,value
2017-12-20T18:08:31.263Z,7192
2017-12-20T18:10:12.155Z,6988
2017-12-20T18:12:52.527Z,7284
2017-12-20T18:13:35.421Z,7504
2017-12-20T18:14:18.596Z,7804
2017-12-20T18:15:02.047Z,8168
2017-12-20T18:16:30.979Z,8932
2017-12-20T18:17:13.501Z,9256
2017-12-20T18:17:56.128Z,9560
2017-12-20T18:18:24.517Z,9744
2017-12-20T18:18:53.194Z,9884
2017-12-20T18:19:50.726Z,10008
2017-12-20T18:21:02.839Z,9956
2017-12-20T18:21:30.791Z,9888
2017-12-20T18:21:59.145Z,9772
2017-12-20T18:22:32.253Z,9656
2017-12-20T18:24:44.202Z,9840
2017-12-20T18:27:09.611Z,11604
2017-12-20T18:27:52.087Z,12336
2017-12-20T18:28:49.686Z,13328
2017-12-20T18:29:47.457Z,14244
2017-12-20T18:31:31.247Z,15392
2017-12-20T18:32:30.147Z,15536
2017-12-20T18:32:59.723Z,15416
2017-12-20T18:34:12.931Z,14852
2017-12-20T18:34:56.614Z,14528
2017-12-20T18:35:39.648Z,14336
2017-12-20T18:36:22.224Z,14284
2017-12-20T18:37:35.218Z,14460
2017-12-20T18:38:04.767Z,14640
2017-12-20T18:39:16.428Z,15428
2017-12-20T18:39:49.093Z,15916
2017-12-20T18:40:18.277Z,16496
2017-12-20T18:40:47.720Z,17120
2017-12-20T18:43:27.022Z,18688
2017-12-20T18:44:10.225Z,18656
2017-12-20T18:45:08.668Z,18464
2017-12-20T18:45:42.134Z,18208
2017-12-20T18:46:25.879Z,17632
2017-12-20T18:47:08.357Z,16788
2017-12-20T18:47:36.354Z,16244
2017-12-20T18:48:05.640Z,15684
2017-12-20T18:50:15.977Z,13152
2017-12-20T18:51:57.094Z,11332
2017-12-20T18:52:25.983Z,10996
2017-12-20T18:52:54.632Z,10748
2017-12-20T18:53:22.583Z,10552
2017-12-20T18:54:05.525Z,10352
2017-12-20T18:55:03.924Z,10104
2017-12-20T18:56:30.504Z,9804
2017-12-20T18:57:13.497Z,9608
2017-12-20T18:58:42.975Z,9312
2017-12-20T18:59:27.901Z,9280
2017-12-20T18:59:58.316Z,9252
2017-12-20T19:00:41.603Z,9156
2017-12-20T19:01:11.156Z,9052
2017-12-20T19:01:41.040Z,8952
2017-12-20T19:02:09.924Z,8840
2017-12-20T19:04:20.783Z,7480
2017-12-20T19:05:03.246Z,7432
2017-12-20T19:05:45.815Z,7704
2017-12-20T19:06:28.913Z,7640
2017-12-20T19:06:59.758Z,7496
2017-12-20T19:07:59.666Z,7140
2017-12-20T19:09:26.280Z,6568
2017-12-20T19:09:56.582Z,6416
2017-12-20T19:10:39.133Z,6168
2017-12-20T19:11:08.105Z,6004
2017-12-20T19:11:36.574Z,5884
2017-12-20T19:12:05.756Z,5776
2017-12-20T19:12:35.129Z,5676
2017-12-20T19:13:18.401Z,5552
2017-12-20T19:13:46.415Z,5484
2017-12-20T19:15:13.565Z,5252
2017-12-20T19:15:56.873Z,5196
2017-12-20T19:16:25.613Z,5176
2017-12-20T19:17:36.489Z,5136
2017-12-20T19:18:19.799Z,5072
2017-12-20T19:18:49.817Z,5000
2017-12-20T19:20:16.547Z,4844
2017-12-20T19:21:31.758Z,4728
2017-12-20T19:22:43.724Z,4728
2017-12-20T19:24:39.570Z,4628
2017-12-20T19:25:10.357Z,4556
2017-12-20T19:25:54.051Z,4460
2017-12-20T19:26:38.560Z,4432
2017-12-20T19:27:07.124Z,4428
2017-12-20T19:27:36.422Z,4372
2017-12-20T19:28:19.292Z,4304
2017-12-20T19:28:48.733Z,4276
2017-12-20T19:29:21.293Z,4248
2017-12-20T19:29:49.221Z,4224
2017-12-20T19:30:17.946Z,4204
2017-12-20T19:30:46.389Z,4184
2017-12-20T19:31:29.603Z,4148
2017-12-20T19:31:57.414Z,4128
2017-12-20T19:32:40.211Z,4068
2017-12-20T19:33:09.319Z,4024
2017-12-20T19:33:51.809Z,3960
2017-12-20T19:34:21.251Z,3904
2017-12-20T19:35:18.696Z,3768
2017-12-20T19:36:31.546Z,3564
2017-12-20T19:39:24.290Z,3176
2017-12-20T19:40:21.704Z,3064
2017-12-20T19:41:32.510Z,2876
2017-12-20T19:42:16.155Z,2748
2017-12-20T19:43:43.768Z,2564
2017-12-20T19:45:25.265Z,2444
2017-12-20T19:46:09.816Z,2424
2017-12-20T19:46:53.656Z,2456
2017-12-20T19:48:05.139Z,2556
2017-12-20T19:48:33.376Z,2604
2017-12-20T19:49:45.101Z,2696
2017-12-20T19:50:13.036Z,2724
2017-12-20T19:50:41.203Z,2752
2017-12-20T19:51:10.166Z,2764
2017-12-20T19:52:07.607Z,2720
2017-12-20T19:52:35.626Z,2688
2017-12-20T19:53:04.581Z,2644
2017-12-20T19:53:33.673Z,2596
2017-12-20T19:54:02.735Z,2548
2017-12-20T19:54:46.053Z,2480
2017-12-20T19:56:12.733Z,2344
2017-12-20T19:56:55.495Z,2272
2017-12-20T19:57:38.359Z,2208
2017-12-20T19:59:48.250Z,2044
2017-12-20T20:00:31.270Z,2020
2017-12-20T20:00:59.304Z,2004
2017-12-20T20:02:40.507Z,1952
2017-12-20T20:04:53.026Z,1792
2017-12-20T20:05:36.474Z,1712
2017-12-20T20:07:17.128Z,1472
2017-12-20T20:08:32.737Z,1248
2017-12-20T20:09:00.785Z,1156
2017-12-20T20:09:44.896Z,1012
2017-12-20T20:10:59.076Z,804
2017-12-20T20:12:26.670Z,636
2017-12-20T20:13:09.716Z,572
2017-12-20T20:14:07.096Z,516
2017-12-20T20:15:22.020Z,488
2017-12-20T20:15:50.710Z,484
2017-12-20T20:16:33.612Z,476
2017-12-20T20:18:02.533Z,492
2017-12-20T20:20:41.189Z,492
2017-12-20T20:22:07.240Z,448
2017-12-20T20:22:35.668Z,436
2017-12-20T20:25:12.531Z,356
2017-12-20T20:25:41.609Z,360
2017-12-20T20:26:24.960Z,372
2017-12-20T20:27:08.728Z,392
2017-12-20T20:27:39.608Z,416
2017-12-20T20:28:22.063Z,444
2017-12-20T20:29:44.909Z,460
2017-12-20T20:30:12.880Z,468
2017-12-20T20:30:56.057Z,476
2017-12-20T20:31:27.426Z,476
2017-12-20T20:31:57.960Z,468
2017-12-20T20:34:23.353Z,448
2017-12-20T20:35:06.135Z,448
2017-12-20T20:36:04.064Z,440
2017-12-20T20:37:59.981Z,408
2017-12-20T20:38:42.321Z,388
2017-12-20T20:39:26.082Z,372
2017-12-20T20:39:54.641Z,360
2017-12-20T20:41:34.633Z,324
2017-12-20T20:42:31.706Z,308
2017-12-20T20:44:11.357Z,280
2017-12-20T20:44:40.931Z,268
2017-12-20T20:45:23.717Z,260
2017-12-20T20:45:52.151Z,244
2017-12-20T20:47:03.587Z,228
2017-12-20T20:47:32.021Z,216
2017-12-20T20:48:00.950Z,212
2017-12-20T20:49:58.951Z,188
2017-12-20T20:50:41.530Z,180
2017-12-20T20:51:10.679Z,180
2017-12-20T20:51:38.927Z,172
2017-12-20T20:52:07.390Z,172
2017-12-20T20:52:35.457Z,168
2017-12-20T20:53:03.730Z,164
2017-12-20T20:53:46.290Z,164
2017-12-20T20:55:41.333Z,160
2017-12-20T20:56:10.971Z,152
2017-12-20T20:56:54.517Z,148
2017-12-20T20:57:37.393Z,148
2017-12-20T20:58:05.952Z,148
2017-12-20T20:58:48.926Z,148
2017-12-20T20:59:18.878Z,144
2017-12-20T21:00:31.263Z,140
2017-12-20T21:00:59.426Z,132
2017-12-20T21:01:28.573Z,128
2017-12-20T21:02:54.491Z,104
2017-12-20T21:03:28.756Z,96
2017-12-20T21:04:12.191Z,88
2017-12-20T21:04:57.784Z,84
2017-12-20T21:06:08.544Z,76
2017-12-20T21:06:38.116Z,84
2017-12-20T21:07:21.867Z,92
2017-12-20T21:08:04.747Z,92
2017-12-20T21:08:33.979Z,92
2017-12-20T21:09:04.013Z,88
2017-12-20T21:09:47.287Z,88
2017-12-20T21:10:16.576Z,88
2017-12-20T21:11:13.545Z,80
2017-12-20T21:12:10.799Z,76
2017-12-20T21:13:36.324Z,60
2017-12-20T21:14:04.965Z,60
2017-12-20T21:14:47.933Z,52
2017-12-20T21:15:30.477Z,52
2017-12-20T21:16:13.824Z,44
2017-12-20T21:16:42.142Z,48
2017-12-20T21:17:39.220Z,48
2017-12-20T21:18:22.071Z,48
2017-12-20T21:18:53.578Z,48
2017-12-20T21:19:22.423Z,48
2017-12-20T21:19:51.776Z,44
2017-12-20T21:20:19.824Z,44
2017-12-20T21:21:46.122Z,48
2017-12-20T21:22:14.981Z,48
2017-12-20T21:22:58.746Z,48
2017-12-20T21:23:41.280Z,52
2017-12-20T21:24:10.531Z,52
2017-12-20T21:24:40.302Z,52
2017-12-20T21:26:24.463Z,52
2017-12-20T21:26:53.049Z,56
2017-12-20T21:27:35.484Z,56
2017-12-20T21:28:32.547Z,52
2017-12-20T21:29:01.395Z,56
2017-12-20T21:29:29.828Z,56
2017-12-20T21:30:12.378Z,52
2017-12-20T21:30:41.726Z,56
2017-12-20T21:31:24.588Z,52
2017-12-20T21:31:54.179Z,52
2017-12-20T21:32:23.074Z,48
2017-12-20T21:33:06.043Z,48
2017-12-20T21:34:50.257Z,48
2017-12-20T21:35:19.532Z,44
2017-12-20T21:36:16.835Z,40
2017-12-20T21:36:45.300Z,44
2017-12-20T21:37:21.214Z,40
2017-12-20T21:38:05.039Z,40
2017-12-20T21:39:59.599Z,36
2017-12-20T21:40:42.157Z,36
2017-12-20T21:41:10.182Z,36
2017-12-20T21:42:22.937Z,32
2017-12-20T21:42:52.344Z,28
2017-12-20T21:43:50.747Z,28
2017-12-20T21:44:34.066Z,28
2017-12-20T21:45:47.159Z,24
2017-12-20T21:46:29.963Z,20
2017-12-20T21:46:57.875Z,20
2017-12-20T21:47:27.271Z,20
2017-12-20T21:47:55.522Z,20
2017-12-20T21:48:23.459Z,20
2017-12-20T21:48:52.113Z,16
2017-12-20T21:49:20.927Z,16
2017-12-20T21:49:48.848Z,16
2017-12-20T21:50:17.258Z,16
2017-12-20T21:51:28.846Z,12
2017-12-20T21:52:54.754Z,8
2017-12-20T21:53:31.116Z,12
2017-12-20T21:54:42.815Z,12
2017-12-20T21:55:11.796Z,8
2017-12-20T21:55:40.852Z,8
2017-12-20T21:57:06.601Z,8
2017-12-20T21:57:34.670Z,8
2017-12-20T21:58:17.997Z,4
2017-12-20T21:58:49.059Z,4
2017-12-20T21:59:17.096Z,4
2017-12-20T22:00:00.489Z,8
2017-12-20T22:00:31.680Z,8
2017-12-20T22:01:00.504Z,4
2017-12-20T22:01:29.342Z,4
2017-12-20T22:02:55.070Z,0
2017-12-20T22:03:38.071Z,0
2017-12-20T22:04:21.234Z,4
2017-12-20T22:04:51.461Z,4
2017-12-20T22:06:02.502Z,4
2017-12-20T22:06:32.086Z,4
2017-12-20T22:07:02.495Z,4
2017-12-20T22:07:30.852Z,4
2017-12-20T22:08:00.103Z,4
2017-12-20T22:09:12.491Z,4
2017-12-20T22:09:55.706Z,4
2017-12-20T22:10:24.974Z,0
2017-12-20T22:10:53.498Z,0
2017-12-20T22:11:21.420Z,0
2017-12-20T22:11:50.247Z,0
2017-12-20T22:12:19.258Z,0
2017-12-20T22:12:47.772Z,0
2017-12-20T22:13:18.432Z,0
2017-12-20T22:13:47.724Z,0
2017-12-20T22:14:16.095Z,0
2017-12-20T22:14:45.035Z,0
2017-12-20T22:15:14.986Z,0
2017-12-20T22:15:43.554Z,0
2017-12-20T22:16:12.547Z,0
2017-12-20T22:16:56.854Z,0
2017-12-20T22:17:25.168Z,0
2017-12-20T22:18:09.068Z,0
2017-12-20T22:18:56.221Z,0
2017-12-20T22:19:25.440Z,0
2017-12-20T22:19:53.866Z,0
2017-12-20T22:21:06.671Z,0
2017-12-20T22:21:34.826Z,0
2017-12-20T22:22:17.369Z,0
2017-12-20T22:22:46.969Z,0
2017-12-20T22:23:44.041Z,0
2017-12-20T22:25:10.688Z,0
2017-12-20T22:25:39.117Z,0
2017-12-20T22:26:07.964Z,0
2017-12-20T22:26:36.777Z,0
2017-12-20T22:27:53.508Z,0
2017-12-20T22:28:21.530Z,0
2017-12-20T22:29:04.216Z,0
2017-12-20T22:29:32.676Z,0
2017-12-20T22:30:01.106Z,0
2017-12-20T22:30:29.562Z,0
2017-12-20T22:30:59.468Z,0
2017-12-20T22:31:28.190Z,0
2017-12-20T22:31:57.288Z,0
2017-12-20T22:32:25.841Z,0
2017-12-20T22:32:54.274Z,0
2017-12-20T22:33:36.712Z,0
2017-12-20T22:34:05.365Z,0
2017-12-20T22:34:33.691Z,0
2017-12-20T22:35:03.185Z,0
2017-12-20T22:35:46.076Z,0
2017-12-20T22:36:15.701Z,0
2017-12-20T22:36:43.972Z,0
2017-12-20T22:37:12.624Z,0
2017-12-20T22:37:40.908Z,0
2017-12-20T22:38:10.034Z,0
2017-12-20T22:38:37.985Z,0
2017-12-20T22:39:49.579Z,0
2017-12-20T22:40:18.652Z,0
2017-12-20T22:41:01.583Z,0
2017-12-20T22:41:49.074Z,0
2017-12-20T22:42:32.567Z,0
2017-12-20T22:43:01.865Z,0
2017-12-20T22:43:30.664Z,0
2017-12-20T22:43:59.384Z,0
2017-12-20T22:44:28.200Z,0
2017-12-20T22:44:57.586Z,0
2017-12-20T22:45:25.846Z,0
2017-12-20T22:47:06.937Z,0
2017-12-20T22:47:34.945Z,0
2017-12-20T22:48:02.966Z,0
2017-12-20T22:48:43.700Z,0
2017-12-20T22:49:11.730Z,0
2017-12-20T22:51:22.058Z,0
2017-12-20T22:51:50.424Z,0
2017-12-20T22:53:02.050Z,0
2017-12-20T22:53:30.509Z,0
2017-12-20T22:53:59.040Z,0
2017-12-20T22:54:27.473Z,0
2017-12-20T22:54:59.253Z,0
2017-12-20T22:55:42.490Z,0
2017-12-20T22:56:10.508Z,0
2017-12-20T22:56:39.425Z,0
2017-12-20T22:57:23.176Z,0
2017-12-20T22:57:51.177Z,0
2017-12-20T22:58:19.733Z,0
2017-12-20T22:58:48.611Z,0
2017-12-20T22:59:17.068Z,0
2017-12-20T23:00:29.342Z,0
2017-12-20T23:00:58.858Z,0
2017-12-20T23:01:42.595Z,0
2017-12-20T23:02:12.568Z,0
2017-12-20T23:02:41.403Z,0
2017-12-20T23:03:25.819Z,0
2017-12-20T23:04:08.786Z,0
2017-12-20T23:05:19.667Z,0
2017-12-20T23:05:48.131Z,0
2017-12-20T23:06:16.625Z,0
2017-12-20T23:06:44.954Z,0
2017-12-20T23:07:14.637Z,0
2017-12-20T23:07:57.180Z,0
2017-12-20T23:08:25.111Z,0
2017-12-20T23:08:53.344Z,0
2017-12-20T23:09:21.698Z,0
2017-12-20T23:10:05.908Z,0
2017-12-20T23:10:34.344Z,0
2017-12-20T23:11:02.662Z,0
2017-12-20T23:11:35.639Z,0
2017-12-20T23:12:05.187Z,0
2017-12-20T23:12:34.461Z,0
2017-12-20T23:13:03.033Z,0
2017-12-20T23:13:31.723Z,0
2017-12-20T23:14:58.949Z,0
2017-12-20T23:15:27.972Z,0
2017-12-20T23:15:56.876Z,0
2017-12-20T23:16:25.500Z,0
2017-12-20T23:18:50.947Z,0
2017-12-20T23:19:19.330Z,0
2017-12-20T23:20:02.682Z,0
2017-12-20T23:20:32.138Z,0
2017-12-20T23:21:16.522Z,0
2017-12-20T23:21:44.341Z,0
2017-12-20T23:22:12.700Z,0
2017-12-20T23:22:41.990Z,0
2017-12-20T23:23:09.912Z,0
2017-12-20T23:23:38.368Z,0
2017-12-20T23:24:20.819Z,0
2017-12-20T23:24:50.834Z,0
2017-12-20T23:25:33.981Z,0
2017-12-20T23:26:16.461Z,0
2017-12-20T23:28:14.132Z,0
2017-12-20T23:29:40.167Z,0
2017-12-20T23:30:08.607Z,0
2017-12-20T23:30:36.555Z,0
2017-12-20T23:31:04.671Z,0
2017-12-20T23:32:47.454Z,0
2017-12-20T23:33:44.444Z,0
2017-12-20T23:34:42.726Z,0
2017-12-20T23:35:54.099Z,0
2017-12-20T23:36:37.374Z,0
2017-12-20T23:37:05.811Z,0
2017-12-20T23:38:04.047Z,0
2017-12-20T23:39:16.840Z,0
2017-12-20T23:39:45.396Z,0
2017-12-20T23:40:13.636Z,0
2017-12-20T23:40:42.350Z,0
2017-12-20T23:41:10.894Z,0
2017-12-20T23:41:53.794Z,0
2017-12-20T23:42:22.599Z,0
2017-12-20T23:42:53.664Z,0
2017-12-20T23:43:22.537Z,0
2017-12-20T23:43:51.063Z,0
2017-12-20T23:45:17.103Z,0
2017-12-20T23:46:15.112Z,0
2017-12-20T23:46:43.778Z,0
2017-12-20T23:47:27.575Z,0
2017-12-20T23:47:57.146Z,0
2017-12-20T23:48:25.382Z,0
2017-12-20T23:48:54.993Z,0
2017-12-20T23:49:52.503Z,0
2017-12-20T23:50:35.398Z,0
2017-12-20T23:51:04.961Z,0
2017-12-20T23:51:34.344Z,0
2017-12-20T23:52:03.151Z,0
2017-12-20T23:52:31.536Z,0
2017-12-20T23:52:59.975Z,0
2017-12-20T23:53:28.965Z,0
2017-12-20T23:53:57.447Z,0
2017-12-20T23:54:25.911Z,0
2017-12-20T23:54:54.961Z,0
2017-12-20T23:55:37.930Z,0
2017-12-20T23:56:20.500Z,0
2017-12-20T23:56:48.983Z,0
2017-12-20T23:57:32.330Z,0
2017-12-20T23:58:00.376Z,0
2017-12-20T23:58:29.714Z,0
2017-12-20T23:58:58.215Z,0
2017-12-20T23:59:26.568Z,0
2017-12-20T23:59:54.421Z,0
